Montgomery, Pennsylvania
Current Conditions -  °F | °C
As of 2:54 AM on Tuesday 27 Jan 2015 (Local Time) from KIPT Reporting Station
Light Snow Light Snow  
Wind Chill: 14°   Ceiling: 3200
Heat Index: 22°   Visibility: 7mi
Dew Point: 15°   Wind: 6mph
Humidity: 75%   Direction: 310°NW
Pressure: 29.82"   Gusts: NA
Location:  41.17°N, 76.88°W
Report Text: KIPT 270754Z AUTO 31005KT 7SM -SN BKN032 OVC048 M06/M09 A2982 RMK AO2 SLP106 P0001 T10561094
Loading
Personal Weather Stations






























Interactive Weather Map New forecast layout! Learn more

10-Day Weather Forecast

Advertisements
Track Severe Weather on mobile